sensor_id;sensor_type;location;lat;lon;timestamp;pressure;altitude;pressure_sealevel;temperature;humidity
38912;BME280;28444;48.056;14.408;2022-11-20T00:01:25;97090.66;;;0.86;100.00
38912;BME280;28444;48.056;14.408;2022-11-20T00:04:12;97092.72;;;0.99;100.00
38912;BME280;28444;48.056;14.408;2022-11-20T00:06:59;97092.88;;;1.06;100.00
38912;BME280;28444;48.056;14.408;2022-11-20T00:09:46;97103.22;;;1.02;100.00
38912;BME280;28444;48.056;14.408;2022-11-20T00:12:33;97102.81;;;0.92;99.10
38912;BME280;28444;48.056;14.408;2022-11-20T00:15:21;97105.00;;;0.94;100.00
38912;BME280;28444;48.056;14.408;2022-11-20T00:18:08;97100.56;;;0.96;99.21
38912;BME280;28444;48.056;14.408;2022-11-20T00:21:04;97101.00;;;1.01;99.00
38912;BME280;28444;48.056;14.408;2022-11-20T00:23:53;97103.91;;;0.84;99.33
38912;BME280;28444;48.056;14.408;2022-11-20T00:26:41;97118.09;;;0.84;99.09
38912;BME280;28444;48.056;14.408;2022-11-20T00:29:28;97116.75;;;0.72;98.36
38912;BME280;28444;48.056;14.408;2022-11-20T00:32:15;97117.59;;;0.61;97.25
38912;BME280;28444;48.056;14.408;2022-11-20T00:35:02;97127.06;;;0.68;99.87
38912;BME280;28444;48.056;14.408;2022-11-20T00:37:49;97132.56;;;0.81;100.00
38912;BME280;28444;48.056;14.408;2022-11-20T00:40:36;97124.22;;;0.85;99.90
38912;BME280;28444;48.056;14.408;2022-11-20T00:43:23;97115.84;;;0.88;100.00
38912;BME280;28444;48.056;14.408;2022-11-20T00:46:14;97118.31;;;0.86;100.00
38912;BME280;28444;48.056;14.408;2022-11-20T00:49:02;97123.59;;;0.73;99.65
38912;BME280;28444;48.056;14.408;2022-11-20T00:51:49;97114.56;;;0.70;99.97
38912;BME280;28444;48.056;14.408;2022-11-20T00:54:36;97114.34;;;0.68;99.94
38912;BME280;28444;48.056;14.408;2022-11-20T00:57:23;97106.31;;;0.87;99.92
38912;BME280;28444;48.056;14.408;2022-11-20T01:00:10;97113.94;;;0.83;98.64
38912;BME280;28444;48.056;14.408;2022-11-20T01:02:57;97109.88;;;0.77;99.54
38912;BME280;28444;48.056;14.408;2022-11-20T01:05:44;97109.06;;;0.82;99.70
38912;BME280;28444;48.056;14.408;2022-11-20T01:08:33;97111.06;;;0.76;99.17
38912;BME280;28444;48.056;14.408;2022-11-20T01:11:23;97109.00;;;0.87;98.44
38912;BME280;28444;48.056;14.408;2022-11-20T01:14:13;97103.78;;;0.95;99.04
38912;BME280;28444;48.056;14.408;2022-11-20T01:17:01;97101.22;;;0.84;98.69
38912;BME280;28444;48.056;14.408;2022-11-20T01:19:49;97112.75;;;0.79;98.90
38912;BME280;28444;48.056;14.408;2022-11-20T01:22:37;97117.22;;;0.52;98.71
38912;BME280;28444;48.056;14.408;2022-11-20T01:25:24;97119.72;;;0.68;98.85
38912;BME280;28444;48.056;14.408;2022-11-20T01:28:11;97121.88;;;0.51;97.23
38912;BME280;28444;48.056;14.408;2022-11-20T01:30:58;97117.81;;;0.39;99.24
38912;BME280;28444;48.056;14.408;2022-11-20T01:33:46;97121.19;;;0.45;100.00
38912;BME280;28444;48.056;14.408;2022-11-20T01:36:35;97119.72;;;0.44;100.00
38912;BME280;28444;48.056;14.408;2022-11-20T01:39:24;97122.44;;;0.44;100.00
38912;BME280;28444;48.056;14.408;2022-11-20T01:42:12;97117.38;;;0.59;100.00
38912;BME280;28444;48.056;14.408;2022-11-20T01:48:54;97108.22;;;0.68;99.57
38912;BME280;28444;48.056;14.408;2022-11-20T01:51:56;97100.50;;;0.59;99.78
38912;BME280;28444;48.056;14.408;2022-11-20T01:54:54;97103.69;;;0.57;98.76
38912;BME280;28444;48.056;14.408;2022-11-20T01:57:43;97100.56;;;0.53;98.89
38912;BME280;28444;48.056;14.408;2022-11-20T02:00:31;97107.72;;;0.45;98.40
38912;BME280;28444;48.056;14.408;2022-11-20T02:03:19;97100.81;;;0.25;99.24
38912;BME280;28444;48.056;14.408;2022-11-20T02:06:40;97094.56;;;0.41;100.00
38912;BME280;28444;48.056;14.408;2022-11-20T02:09:29;97100.00;;;0.60;99.44
38912;BME280;28444;48.056;14.408;2022-11-20T02:12:16;97094.16;;;0.56;98.24
38912;BME280;28444;48.056;14.408;2022-11-20T02:15:22;97103.19;;;0.34;98.34
38912;BME280;28444;48.056;14.408;2022-11-20T02:18:17;97099.31;;;0.30;99.46
38912;BME280;28444;48.056;14.408;2022-11-20T02:21:15;97104.25;;;0.26;100.00
38912;BME280;28444;48.056;14.408;2022-11-20T02:24:16;97110.81;;;0.30;100.00
38912;BME280;28444;48.056;14.408;2022-11-20T02:27:07;97111.47;;;0.36;99.70
38912;BME280;28444;48.056;14.408;2022-11-20T02:30:05;97110.84;;;0.24;99.39
38912;BME280;28444;48.056;14.408;2022-11-20T02:32:58;97099.72;;;0.09;100.00
38912;BME280;28444;48.056;14.408;2022-11-20T02:35:46;97099.59;;;0.26;100.00
38912;BME280;28444;48.056;14.408;2022-11-20T02:38:33;97099.16;;;0.22;100.00
38912;BME280;28444;48.056;14.408;2022-11-20T02:41:20;97094.97;;;0.21;100.00
38912;BME280;28444;48.056;14.408;2022-11-20T02:44:08;97097.19;;;0.22;100.00
38912;BME280;28444;48.056;14.408;2022-11-20T02:46:57;97091.91;;;0.11;100.00
38912;BME280;28444;48.056;14.408;2022-11-20T02:49:45;97094.88;;;0.08;100.00
38912;BME280;28444;48.056;14.408;2022-11-20T02:52:32;97104.84;;;0.13;100.00
38912;BME280;28444;48.056;14.408;2022-11-20T02:55:19;97097.78;;;0.10;100.00
38912;BME280;28444;48.056;14.408;2022-11-20T02:58:06;97094.91;;;0.02;100.00
38912;BME280;28444;48.056;14.408;2022-11-20T03:00:53;97091.44;;;0.07;100.00
38912;BME280;28444;48.056;14.408;2022-11-20T03:03:40;97096.31;;;0.09;100.00
38912;BME280;28444;48.056;14.408;2022-11-20T03:06:28;97104.69;;;-0.01;100.00
38912;BME280;28444;48.056;14.408;2022-11-20T03:09:15;97100.34;;;-0.04;100.00
38912;BME280;28444;48.056;14.408;2022-11-20T03:12:02;97114.69;;;0.05;100.00
38912;BME280;28444;48.056;14.408;2022-11-20T03:14:49;97106.84;;;0.07;100.00
38912;BME280;28444;48.056;14.408;2022-11-20T03:17:39;97106.34;;;0.08;100.00
38912;BME280;28444;48.056;14.408;2022-11-20T03:20:26;97107.34;;;0.05;100.00
38912;BME280;28444;48.056;14.408;2022-11-20T03:23:13;97112.22;;;0.07;100.00
38912;BME280;28444;48.056;14.408;2022-11-20T03:26:10;97139.25;;;0.20;100.00
38912;BME280;28444;48.056;14.408;2022-11-20T03:29:00;97132.53;;;0.32;100.00
38912;BME280;28444;48.056;14.408;2022-11-20T03:31:48;97126.72;;;0.28;100.00
38912;BME280;28444;48.056;14.408;2022-11-20T03:34:34;97120.69;;;0.16;100.00
38912;BME280;28444;48.056;14.408;2022-11-20T03:37:22;97124.63;;;0.15;100.00
38912;BME280;28444;48.056;14.408;2022-11-20T03:40:09;97129.22;;;0.20;100.00
38912;BME280;28444;48.056;14.408;2022-11-20T03:42:56;97125.81;;;0.20;100.00
38912;BME280;28444;48.056;14.408;2022-11-20T03:45:43;97125.41;;;0.40;100.00
38912;BME280;28444;48.056;14.408;2022-11-20T03:48:30;97131.94;;;0.45;100.00
38912;BME280;28444;48.056;14.408;2022-11-20T03:51:29;97123.03;;;0.56;100.00
38912;BME280;28444;48.056;14.408;2022-11-20T03:54:16;97126.63;;;0.64;100.00
38912;BME280;28444;48.056;14.408;2022-11-20T03:57:03;97130.94;;;0.72;99.99
38912;BME280;28444;48.056;14.408;2022-11-20T03:59:50;97126.50;;;0.75;100.00
38912;BME280;28444;48.056;14.408;2022-11-20T04:02:37;97134.97;;;0.85;100.00
38912;BME280;28444;48.056;14.408;2022-11-20T04:05:24;97122.53;;;0.82;100.00
38912;BME280;28444;48.056;14.408;2022-11-20T04:08:11;97131.47;;;0.90;100.00
38912;BME280;28444;48.056;14.408;2022-11-20T04:11:21;97121.66;;;0.92;100.00
38912;BME280;28444;48.056;14.408;2022-11-20T04:14:13;97122.84;;;0.97;100.00
38912;BME280;28444;48.056;14.408;2022-11-20T04:17:01;97119.13;;;1.00;100.00
38912;BME280;28444;48.056;14.408;2022-11-20T04:19:48;97115.28;;;0.95;100.00
38912;BME280;28444;48.056;14.408;2022-11-20T04:22:35;97120.94;;;0.92;100.00
38912;BME280;28444;48.056;14.408;2022-11-20T04:25:22;97129.88;;;0.81;100.00
38912;BME280;28444;48.056;14.408;2022-11-20T04:28:09;97124.31;;;0.98;100.00
38912;BME280;28444;48.056;14.408;2022-11-20T04:31:37;97124.66;;;0.89;100.00
38912;BME280;28444;48.056;14.408;2022-11-20T04:34:17;97119.25;;;0.89;100.00
38912;BME280;28444;48.056;14.408;2022-11-20T04:37:03;97117.13;;;0.82;100.00
38912;BME280;28444;48.056;14.408;2022-11-20T04:39:50;97119.53;;;0.85;100.00
38912;BME280;28444;48.056;14.408;2022-11-20T04:42:37;97104.13;;;0.86;100.00
38912;BME280;28444;48.056;14.408;2022-11-20T04:45:25;97112.63;;;0.90;100.00
38912;BME280;28444;48.056;14.408;2022-11-20T04:48:11;97109.16;;;0.95;100.00
38912;BME280;28444;48.056;14.408;2022-11-20T04:51:02;97098.97;;;1.07;100.00
38912;BME280;28444;48.056;14.408;2022-11-20T04:53:50;97094.25;;;1.13;100.00
38912;BME280;28444;48.056;14.408;2022-11-20T04:56:37;97097.16;;;1.15;100.00
38912;BME280;28444;48.056;14.408;2022-11-20T04:59:24;97089.59;;;1.13;100.00
38912;BME280;28444;48.056;14.408;2022-11-20T05:02:12;97092.00;;;0.98;100.00
38912;BME280;28444;48.056;14.408;2022-11-20T05:04:59;97088.03;;;0.80;100.00
38912;BME280;28444;48.056;14.408;2022-11-20T05:07:46;97095.84;;;0.59;100.00
38912;BME280;28444;48.056;14.408;2022-11-20T05:10:33;97088.81;;;0.75;100.00
38912;BME280;28444;48.056;14.408;2022-11-20T05:13:20;97086.91;;;0.94;100.00
38912;BME280;28444;48.056;14.408;2022-11-20T05:16:09;97097.78;;;0.83;100.00
38912;BME280;28444;48.056;14.408;2022-11-20T05:18:57;97093.84;;;0.65;100.00
38912;BME280;28444;48.056;14.408;2022-11-20T05:21:44;97091.81;;;0.90;100.00
38912;BME280;28444;48.056;14.408;2022-11-20T05:24:31;97098.84;;;0.99;100.00
38912;BME280;28444;48.056;14.408;2022-11-20T05:27:18;97083.13;;;1.03;100.00
38912;BME280;28444;48.056;14.408;2022-11-20T05:30:06;97088.94;;;1.07;100.00
38912;BME280;28444;48.056;14.408;2022-11-20T05:32:53;97089.13;;;0.90;100.00
38912;BME280;28444;48.056;14.408;2022-11-20T05:35:40;97091.06;;;0.71;100.00
38912;BME280;28444;48.056;14.408;2022-11-20T05:38:27;97087.75;;;0.84;100.00
38912;BME280;28444;48.056;14.408;2022-11-20T05:41:17;97095.69;;;0.95;100.00
38912;BME280;28444;48.056;14.408;2022-11-20T05:44:05;97102.97;;;1.00;100.00
38912;BME280;28444;48.056;14.408;2022-11-20T05:46:52;97102.47;;;1.02;100.00
38912;BME280;28444;48.056;14.408;2022-11-20T05:49:39;97109.66;;;0.93;100.00
38912;BME280;28444;48.056;14.408;2022-11-20T05:52:29;97106.19;;;0.99;100.00
38912;BME280;28444;48.056;14.408;2022-11-20T05:55:16;97107.13;;;1.01;100.00
38912;BME280;28444;48.056;14.408;2022-11-20T05:58:03;97115.13;;;1.07;100.00
38912;BME280;28444;48.056;14.408;2022-11-20T06:00:50;97107.22;;;1.14;100.00
38912;BME280;28444;48.056;14.408;2022-11-20T06:03:38;97106.69;;;1.16;100.00
38912;BME280;28444;48.056;14.408;2022-11-20T06:06:25;97118.56;;;1.07;100.00
38912;BME280;28444;48.056;14.408;2022-11-20T06:09:13;97123.66;;;1.11;100.00
38912;BME280;28444;48.056;14.408;2022-11-20T06:12:00;97122.78;;;1.03;100.00
38912;BME280;28444;48.056;14.408;2022-11-20T06:14:47;97117.03;;;1.12;100.00
38912;BME280;28444;48.056;14.408;2022-11-20T06:17:34;97120.25;;;1.10;100.00
38912;BME280;28444;48.056;14.408;2022-11-20T06:20:21;97125.19;;;1.06;100.00
38912;BME280;28444;48.056;14.408;2022-11-20T06:23:08;97121.63;;;1.17;100.00
38912;BME280;28444;48.056;14.408;2022-11-20T06:25:55;97123.75;;;1.24;100.00
38912;BME280;28444;48.056;14.408;2022-11-20T06:28:43;97122.66;;;1.33;100.00
38912;BME280;28444;48.056;14.408;2022-11-20T06:31:30;97125.16;;;1.31;100.00
38912;BME280;28444;48.056;14.408;2022-11-20T06:34:19;97117.06;;;1.31;100.00
38912;BME280;28444;48.056;14.408;2022-11-20T06:37:06;97131.25;;;1.31;100.00
38912;BME280;28444;48.056;14.408;2022-11-20T06:39:53;97140.94;;;1.21;100.00
38912;BME280;28444;48.056;14.408;2022-11-20T06:42:40;97144.94;;;1.33;100.00
38912;BME280;28444;48.056;14.408;2022-11-20T06:45:27;97137.09;;;1.35;100.00
38912;BME280;28444;48.056;14.408;2022-11-20T06:48:14;97149.31;;;1.36;100.00
38912;BME280;28444;48.056;14.408;2022-11-20T06:51:06;97143.53;;;1.27;100.00
38912;BME280;28444;48.056;14.408;2022-11-20T06:53:53;97150.25;;;1.39;100.00
38912;BME280;28444;48.056;14.408;2022-11-20T06:56:40;97148.22;;;1.45;100.00
38912;BME280;28444;48.056;14.408;2022-11-20T06:59:27;97155.41;;;1.37;100.00
38912;BME280;28444;48.056;14.408;2022-11-20T07:02:14;97153.97;;;1.36;100.00
38912;BME280;28444;48.056;14.408;2022-11-20T07:05:01;97160.75;;;1.42;100.00
38912;BME280;28444;48.056;14.408;2022-11-20T07:07:48;97156.38;;;1.39;100.00
38912;BME280;28444;48.056;14.408;2022-11-20T07:10:35;97163.50;;;1.37;100.00
38912;BME280;28444;48.056;14.408;2022-11-20T07:13:23;97152.72;;;1.37;100.00
38912;BME280;28444;48.056;14.408;2022-11-20T07:16:10;97161.53;;;1.37;100.00
38912;BME280;28444;48.056;14.408;2022-11-20T07:18:57;97161.81;;;1.34;100.00
38912;BME280;28444;48.056;14.408;2022-11-20T07:21:44;97173.56;;;1.36;100.00
38912;BME280;28444;48.056;14.408;2022-11-20T07:24:31;97169.13;;;1.39;100.00
38912;BME280;28444;48.056;14.408;2022-11-20T07:27:18;97175.25;;;1.39;100.00
38912;BME280;28444;48.056;14.408;2022-11-20T07:30:05;97161.19;;;1.47;100.00
38912;BME280;28444;48.056;14.408;2022-11-20T07:32:54;97170.81;;;1.61;100.00
38912;BME280;28444;48.056;14.408;2022-11-20T07:35:42;97166.50;;;1.71;100.00
38912;BME280;28444;48.056;14.408;2022-11-20T07:38:29;97169.69;;;1.69;100.00
38912;BME280;28444;48.056;14.408;2022-11-20T07:41:16;97167.97;;;1.72;100.00
38912;BME280;28444;48.056;14.408;2022-11-20T07:44:03;97166.13;;;1.61;100.00
38912;BME280;28444;48.056;14.408;2022-11-20T07:46:50;97165.84;;;1.65;100.00
38912;BME280;28444;48.056;14.408;2022-11-20T07:49:43;97168.84;;;1.61;100.00
38912;BME280;28444;48.056;14.408;2022-11-20T07:52:30;97166.28;;;1.69;100.00
38912;BME280;28444;48.056;14.408;2022-11-20T07:55:17;97169.13;;;1.77;100.00
38912;BME280;28444;48.056;14.408;2022-11-20T07:58:04;97169.69;;;1.88;100.00
38912;BME280;28444;48.056;14.408;2022-11-20T08:00:51;97163.50;;;1.93;100.00
38912;BME280;28444;48.056;14.408;2022-11-20T08:03:38;97176.38;;;2.01;100.00
38912;BME280;28444;48.056;14.408;2022-11-20T08:06:25;97172.66;;;2.04;100.00
38912;BME280;28444;48.056;14.408;2022-11-20T08:09:13;97167.09;;;2.15;100.00
38912;BME280;28444;48.056;14.408;2022-11-20T08:12:00;97167.22;;;2.23;100.00
38912;BME280;28444;48.056;14.408;2022-11-20T08:15:06;97167.66;;;2.27;100.00
38912;BME280;28444;48.056;14.408;2022-11-20T08:18:00;97169.56;;;2.13;100.00
38912;BME280;28444;48.056;14.408;2022-11-20T08:21:07;97172.22;;;2.00;100.00
38912;BME280;28444;48.056;14.408;2022-11-20T08:23:54;97166.97;;;2.07;100.00
38912;BME280;28444;48.056;14.408;2022-11-20T08:26:41;97169.88;;;2.09;100.00
38912;BME280;28444;48.056;14.408;2022-11-20T08:29:28;97173.41;;;2.17;100.00
38912;BME280;28444;48.056;14.408;2022-11-20T08:32:15;97166.16;;;2.12;100.00
38912;BME280;28444;48.056;14.408;2022-11-20T08:35:03;97169.63;;;2.26;100.00
38912;BME280;28444;48.056;14.408;2022-11-20T08:37:50;97171.66;;;2.52;100.00
38912;BME280;28444;48.056;14.408;2022-11-20T08:40:37;97167.72;;;2.67;100.00
38912;BME280;28444;48.056;14.408;2022-11-20T08:43:24;97175.31;;;2.81;100.00
38912;BME280;28444;48.056;14.408;2022-11-20T08:46:11;97176.47;;;2.86;100.00
38912;BME280;28444;48.056;14.408;2022-11-20T08:48:58;97178.44;;;2.99;99.70
38912;BME280;28444;48.056;14.408;2022-11-20T08:51:45;97187.91;;;3.05;98.36
38912;BME280;28444;48.056;14.408;2022-11-20T08:54:34;97179.38;;;3.01;97.55
38912;BME280;28444;48.056;14.408;2022-11-20T08:57:21;97180.22;;;2.96;98.90
38912;BME280;28444;48.056;14.408;2022-11-20T09:00:10;97178.34;;;2.91;98.48
38912;BME280;28444;48.056;14.408;2022-11-20T09:02:58;97183.53;;;3.02;97.22
38912;BME280;28444;48.056;14.408;2022-11-20T09:05:46;97180.03;;;2.94;98.33
38912;BME280;28444;48.056;14.408;2022-11-20T09:08:33;97175.13;;;2.93;98.12
38912;BME280;28444;48.056;14.408;2022-11-20T09:11:22;97176.56;;;2.94;100.00
38912;BME280;28444;48.056;14.408;2022-11-20T09:14:09;97173.25;;;3.01;99.58
38912;BME280;28444;48.056;14.408;2022-11-20T09:16:56;97171.16;;;3.07;100.00
38912;BME280;28444;48.056;14.408;2022-11-20T09:19:43;97179.78;;;3.19;98.07
38912;BME280;28444;48.056;14.408;2022-11-20T09:22:30;97174.59;;;3.21;96.46
38912;BME280;28444;48.056;14.408;2022-11-20T09:25:18;97173.44;;;3.29;96.38
38912;BME280;28444;48.056;14.408;2022-11-20T09:28:05;97176.03;;;3.22;96.99
38912;BME280;28444;48.056;14.408;2022-11-20T09:30:52;97175.44;;;3.02;98.44
38912;BME280;28444;48.056;14.408;2022-11-20T09:33:38;97172.31;;;2.98;100.00
38912;BME280;28444;48.056;14.408;2022-11-20T09:36:25;97173.66;;;3.05;100.00
38912;BME280;28444;48.056;14.408;2022-11-20T09:39:13;97174.28;;;2.98;99.79
38912;BME280;28444;48.056;14.408;2022-11-20T09:42:22;97173.75;;;2.86;100.00
38912;BME280;28444;48.056;14.408;2022-11-20T09:45:35;97177.94;;;2.87;100.00
38912;BME280;28444;48.056;14.408;2022-11-20T09:49:06;97181.25;;;2.93;99.41
38912;BME280;28444;48.056;14.408;2022-11-20T09:55:24;97164.75;;;2.83;99.92
38912;BME280;28444;48.056;14.408;2022-11-20T10:01:37;97160.84;;;2.52;100.00
38912;BME280;28444;48.056;14.408;2022-11-20T10:04:29;97154.09;;;2.46;100.00
38912;BME280;28444;48.056;14.408;2022-11-20T10:07:27;97156.59;;;2.44;100.00
38912;BME280;28444;48.056;14.408;2022-11-20T10:10:33;97161.66;;;2.34;100.00
38912;BME280;28444;48.056;14.408;2022-11-20T10:13:40;97146.59;;;2.38;100.00
38912;BME280;28444;48.056;14.408;2022-11-20T10:19:46;97152.03;;;2.52;100.00
38912;BME280;28444;48.056;14.408;2022-11-20T10:22:47;97147.47;;;2.60;100.00
38912;BME280;28444;48.056;14.408;2022-11-20T10:25:39;97145.28;;;2.72;100.00
38912;BME280;28444;48.056;14.408;2022-11-20T10:29:02;97143.44;;;2.93;100.00
38912;BME280;28444;48.056;14.408;2022-11-20T10:32:14;97139.47;;;3.07;100.00
38912;BME280;28444;48.056;14.408;2022-11-20T10:35:31;97125.31;;;3.28;100.00
38912;BME280;28444;48.056;14.408;2022-11-20T10:38:24;97122.91;;;3.37;100.00
38912;BME280;28444;48.056;14.408;2022-11-20T10:41:21;97119.66;;;3.52;100.00
38912;BME280;28444;48.056;14.408;2022-11-20T10:44:27;97112.41;;;3.68;100.00
38912;BME280;28444;48.056;14.408;2022-11-20T10:47:33;97114.16;;;3.79;100.00
38912;BME280;28444;48.056;14.408;2022-11-20T10:50:21;97108.69;;;3.92;100.00
38912;BME280;28444;48.056;14.408;2022-11-20T10:53:49;97113.63;;;4.01;100.00
38912;BME280;28444;48.056;14.408;2022-11-20T10:56:49;97106.03;;;4.21;100.00
38912;BME280;28444;48.056;14.408;2022-11-20T11:00:00;97107.41;;;4.35;100.00
38912;BME280;28444;48.056;14.408;2022-11-20T11:02:50;97101.56;;;4.52;100.00
38912;BME280;28444;48.056;14.408;2022-11-20T11:05:41;97096.56;;;4.64;100.00
38912;BME280;28444;48.056;14.408;2022-11-20T11:08:36;97096.06;;;4.65;100.00
38912;BME280;28444;48.056;14.408;2022-11-20T11:11:28;97085.47;;;4.82;100.00
38912;BME280;28444;48.056;14.408;2022-11-20T11:14:15;97089.81;;;5.22;92.54
38912;BME280;28444;48.056;14.408;2022-11-20T11:17:03;97078.38;;;5.60;89.24
38912;BME280;28444;48.056;14.408;2022-11-20T11:20:16;97090.56;;;6.05;86.46
38912;BME280;28444;48.056;14.408;2022-11-20T11:23:04;97092.03;;;6.21;85.77
38912;BME280;28444;48.056;14.408;2022-11-20T11:25:57;97093.47;;;6.37;81.71
38912;BME280;28444;48.056;14.408;2022-11-20T11:28:58;97094.31;;;6.70;81.00
38912;BME280;28444;48.056;14.408;2022-11-20T11:31:46;97085.41;;;6.85;80.92
38912;BME280;28444;48.056;14.408;2022-11-20T11:34:32;97086.09;;;7.01;80.36
38912;BME280;28444;48.056;14.408;2022-11-20T11:37:21;97085.72;;;7.05;79.10
38912;BME280;28444;48.056;14.408;2022-11-20T11:40:11;97070.31;;;6.99;82.49
38912;BME280;28444;48.056;14.408;2022-11-20T11:43:19;97066.69;;;6.97;82.95
38912;BME280;28444;48.056;14.408;2022-11-20T11:46:36;97073.63;;;6.90;80.58
38912;BME280;28444;48.056;14.408;2022-11-20T11:49:23;97063.81;;;6.95;78.44
38912;BME280;28444;48.056;14.408;2022-11-20T11:52:20;97070.16;;;6.97;78.85
38912;BME280;28444;48.056;14.408;2022-11-20T11:55:18;97074.50;;;6.93;79.08
38912;BME280;28444;48.056;14.408;2022-11-20T11:58:43;97073.28;;;6.86;78.93
38912;BME280;28444;48.056;14.408;2022-11-20T12:01:54;97060.72;;;6.98;78.87
38912;BME280;28444;48.056;14.408;2022-11-20T12:04:50;97058.34;;;7.03;76.97
38912;BME280;28444;48.056;14.408;2022-11-20T12:07:44;97059.41;;;7.07;79.91
38912;BME280;28444;48.056;14.408;2022-11-20T12:10:46;97063.41;;;7.06;77.59
38912;BME280;28444;48.056;14.408;2022-11-20T12:14:02;97061.41;;;7.07;80.69
38912;BME280;28444;48.056;14.408;2022-11-20T12:16:51;97059.97;;;7.06;80.72
38912;BME280;28444;48.056;14.408;2022-11-20T12:19:40;97062.47;;;7.11;81.79
38912;BME280;28444;48.056;14.408;2022-11-20T12:23:19;97058.31;;;7.10;81.61
38912;BME280;28444;48.056;14.408;2022-11-20T12:26:45;97052.09;;;7.25;76.29
38912;BME280;28444;48.056;14.408;2022-11-20T12:30:18;97048.28;;;7.28;77.42
38912;BME280;28444;48.056;14.408;2022-11-20T12:33:18;97051.09;;;7.45;75.57
38912;BME280;28444;48.056;14.408;2022-11-20T12:36:37;97057.81;;;7.37;76.59
38912;BME280;28444;48.056;14.408;2022-11-20T12:39:35;97052.44;;;7.29;74.93
38912;BME280;28444;48.056;14.408;2022-11-20T12:42:33;97055.84;;;7.37;74.77
38912;BME280;28444;48.056;14.408;2022-11-20T12:52:32;97039.66;;;7.07;77.30
38912;BME280;28444;48.056;14.408;2022-11-20T12:55:36;97046.03;;;7.02;77.83
38912;BME280;28444;48.056;14.408;2022-11-20T13:01:49;97038.41;;;7.00;78.57
38912;BME280;28444;48.056;14.408;2022-11-20T13:08:34;97043.16;;;6.92;80.31
38912;BME280;28444;48.056;14.408;2022-11-20T13:14:36;97036.78;;;6.97;78.24
38912;BME280;28444;48.056;14.408;2022-11-20T13:17:34;97036.66;;;6.87;80.40
38912;BME280;28444;48.056;14.408;2022-11-20T13:20:23;97033.75;;;6.85;83.66
38912;BME280;28444;48.056;14.408;2022-11-20T13:23:11;97020.19;;;6.78;84.05
38912;BME280;28444;48.056;14.408;2022-11-20T13:26:06;97026.19;;;6.76;86.15
38912;BME280;28444;48.056;14.408;2022-11-20T13:29:18;97024.72;;;6.75;86.17
38912;BME280;28444;48.056;14.408;2022-11-20T13:32:17;97015.69;;;6.72;86.83
38912;BME280;28444;48.056;14.408;2022-11-20T13:35:05;97011.38;;;6.69;86.30
38912;BME280;28444;48.056;14.408;2022-11-20T13:40:58;97006.09;;;6.71;86.20
38912;BME280;28444;48.056;14.408;2022-11-20T13:43:46;97007.38;;;6.70;87.49
38912;BME280;28444;48.056;14.408;2022-11-20T13:46:43;97003.97;;;6.62;88.68
38912;BME280;28444;48.056;14.408;2022-11-20T13:49:39;96999.63;;;6.59;86.97
38912;BME280;28444;48.056;14.408;2022-11-20T13:52:51;96999.44;;;6.49;88.10
38912;BME280;28444;48.056;14.408;2022-11-20T13:59:52;96997.84;;;6.46;85.19
38912;BME280;28444;48.056;14.408;2022-11-20T14:02:44;96998.94;;;6.43;88.93
38912;BME280;28444;48.056;14.408;2022-11-20T14:05:50;97006.56;;;6.30;91.14
38912;BME280;28444;48.056;14.408;2022-11-20T14:08:41;97003.53;;;6.18;92.70
38912;BME280;28444;48.056;14.408;2022-11-20T14:11:30;96992.84;;;6.12;92.29
38912;BME280;28444;48.056;14.408;2022-11-20T14:14:20;96998.44;;;5.99;92.70
38912;BME280;28444;48.056;14.408;2022-11-20T14:17:17;97006.06;;;5.93;94.27
38912;BME280;28444;48.056;14.408;2022-11-20T14:20:06;97005.69;;;5.89;94.65
38912;BME280;28444;48.056;14.408;2022-11-20T14:22:58;97003.88;;;5.84;95.94
38912;BME280;28444;48.056;14.408;2022-11-20T14:25:45;97004.94;;;5.80;95.88
38912;BME280;28444;48.056;14.408;2022-11-20T14:28:32;97009.28;;;5.76;95.57
38912;BME280;28444;48.056;14.408;2022-11-20T14:31:23;97004.06;;;5.70;97.50
38912;BME280;28444;48.056;14.408;2022-11-20T14:34:26;96998.06;;;5.64;98.28
38912;BME280;28444;48.056;14.408;2022-11-20T14:37:20;96991.94;;;5.56;100.00
38912;BME280;28444;48.056;14.408;2022-11-20T14:40:26;96992.81;;;5.51;99.93
38912;BME280;28444;48.056;14.408;2022-11-20T14:43:27;96988.28;;;5.46;100.00
38912;BME280;28444;48.056;14.408;2022-11-20T14:46:15;96982.50;;;5.42;100.00
38912;BME280;28444;48.056;14.408;2022-11-20T14:49:02;96986.31;;;5.46;100.00
38912;BME280;28444;48.056;14.408;2022-11-20T14:52:12;96981.44;;;5.45;100.00
38912;BME280;28444;48.056;14.408;2022-11-20T14:54:59;96982.88;;;5.46;100.00
38912;BME280;28444;48.056;14.408;2022-11-20T14:57:54;96986.50;;;5.48;100.00
38912;BME280;28444;48.056;14.408;2022-11-20T15:00:42;96985.59;;;5.53;100.00
38912;BME280;28444;48.056;14.408;2022-11-20T15:03:40;96985.78;;;5.55;100.00
38912;BME280;28444;48.056;14.408;2022-11-20T15:06:27;96981.44;;;5.52;100.00
38912;BME280;28444;48.056;14.408;2022-11-20T15:09:15;96987.03;;;5.54;100.00
38912;BME280;28444;48.056;14.408;2022-11-20T15:12:03;96986.66;;;5.50;100.00
38912;BME280;28444;48.056;14.408;2022-11-20T15:14:50;96987.94;;;5.57;100.00
38912;BME280;28444;48.056;14.408;2022-11-20T15:17:40;96990.47;;;5.55;100.00
38912;BME280;28444;48.056;14.408;2022-11-20T15:20:32;96986.31;;;5.54;100.00
38912;BME280;28444;48.056;14.408;2022-11-20T15:23:19;96991.88;;;5.41;100.00
38912;BME280;28444;48.056;14.408;2022-11-20T15:26:07;96981.59;;;5.31;100.00
38912;BME280;28444;48.056;14.408;2022-11-20T15:28:55;96979.22;;;5.28;100.00
38912;BME280;28444;48.056;14.408;2022-11-20T15:31:42;96979.22;;;5.28;100.00
38912;BME280;28444;48.056;14.408;2022-11-20T15:34:31;96978.88;;;5.24;100.00
38912;BME280;28444;48.056;14.408;2022-11-20T15:37:18;96972.16;;;5.17;100.00
38912;BME280;28444;48.056;14.408;2022-11-20T15:40:06;96980.28;;;5.17;100.00